createdAt,value
2022-09-26T00:00:11.717Z,1006.78
2022-09-26T00:01:11.800Z,1006.80
2022-09-26T00:02:11.714Z,1006.73
2022-09-26T00:03:11.654Z,1006.76
2022-09-26T00:04:11.628Z,1006.73
2022-09-26T00:05:11.630Z,1006.70
2022-09-26T00:06:11.586Z,1006.70
2022-09-26T00:07:11.583Z,1006.65
2022-09-26T00:08:11.550Z,1006.63
2022-09-26T00:09:11.630Z,1006.60
2022-09-26T00:10:11.528Z,1006.60
2022-09-26T00:11:11.478Z,1006.57
2022-09-26T00:12:11.479Z,1006.57
2022-09-26T00:13:11.440Z,1006.48
2022-09-26T00:14:11.421Z,1006.50
2022-09-26T00:15:11.427Z,1006.49
2022-09-26T00:16:11.420Z,1006.44
2022-09-26T00:17:11.420Z,1006.43
2022-09-26T00:18:11.338Z,1006.39
2022-09-26T00:19:11.373Z,1006.40
2022-09-26T00:20:11.318Z,1006.40
2022-09-26T00:21:11.272Z,1006.38
2022-09-26T00:22:11.256Z,1006.36
2022-09-26T00:23:11.230Z,1006.32
2022-09-26T00:24:11.208Z,1006.30
2022-09-26T00:25:11.185Z,1006.30
2022-09-26T00:26:11.190Z,1006.27
2022-09-26T00:27:11.165Z,1006.27
2022-09-26T00:28:11.121Z,1006.25
2022-09-26T00:29:11.258Z,1006.15
2022-09-26T00:30:11.082Z,1006.12
2022-09-26T00:31:11.124Z,1006.14
2022-09-26T00:32:11.038Z,1006.07
2022-09-26T00:33:11.015Z,1006.09
2022-09-26T00:34:10.997Z,1006.06
2022-09-26T00:35:10.991Z,1006.07
2022-09-26T00:36:10.953Z,1006.06
2022-09-26T00:37:10.955Z,1006.06
2022-09-26T00:38:10.910Z,1006.06
2022-09-26T00:39:10.893Z,1006.02
2022-09-26T00:40:10.910Z,1006.03
2022-09-26T00:41:10.855Z,1006.01
2022-09-26T00:42:10.829Z,1005.99
2022-09-26T00:43:10.825Z,1006.01
2022-09-26T00:44:10.803Z,1006.01
2022-09-26T00:45:10.767Z,1006.01
2022-09-26T00:46:10.783Z,1005.97
2022-09-26T00:47:10.738Z,1005.98
2022-09-26T00:48:10.709Z,1005.95
2022-09-26T00:49:10.712Z,1005.93
2022-09-26T00:50:10.654Z,1005.88
2022-09-26T00:51:10.637Z,1005.87
2022-09-26T00:52:10.620Z,1005.89
2022-09-26T00:53:10.613Z,1005.85
2022-09-26T00:54:10.573Z,1005.86
2022-09-26T00:55:10.566Z,1005.83
2022-09-26T00:56:10.527Z,1005.84
2022-09-26T00:57:10.507Z,1005.82
2022-09-26T00:58:10.509Z,1005.80
2022-09-26T00:59:10.468Z,1005.81
2022-09-26T01:00:10.444Z,1005.80
2022-09-26T01:01:10.588Z,1005.83
2022-09-26T01:02:10.484Z,1005.81
2022-09-26T01:03:10.401Z,1005.82
2022-09-26T01:04:10.358Z,1005.79
2022-09-26T01:05:10.406Z,1005.74
2022-09-26T01:06:10.307Z,1005.77
2022-09-26T01:07:10.295Z,1005.77
2022-09-26T01:08:10.293Z,1005.74
2022-09-26T01:09:10.271Z,1005.73
2022-09-26T01:10:10.235Z,1005.78
2022-09-26T01:11:14.819Z,1005.72
2022-09-26T01:12:10.200Z,1005.68
2022-09-26T01:13:10.189Z,1005.67
2022-09-26T01:14:10.152Z,1005.67
2022-09-26T01:15:10.126Z,1005.66
2022-09-26T01:16:10.142Z,1005.61
2022-09-26T01:17:10.112Z,1005.58
2022-09-26T01:18:10.065Z,1005.60
2022-09-26T01:19:10.045Z,1005.61
2022-09-26T01:20:10.023Z,1005.56
2022-09-26T01:21:10.019Z,1005.57
2022-09-26T01:22:09.978Z,1005.56
2022-09-26T01:23:09.974Z,1005.56
2022-09-26T01:24:09.940Z,1005.55
2022-09-26T01:25:09.912Z,1005.49
2022-09-26T01:26:09.914Z,1005.45
2022-09-26T01:27:09.893Z,1005.43
2022-09-26T01:28:09.854Z,1005.45
2022-09-26T01:29:09.831Z,1005.46
2022-09-26T01:30:09.807Z,1005.42
2022-09-26T01:31:09.828Z,1005.43
2022-09-26T01:32:09.784Z,1005.44
2022-09-26T01:33:09.742Z,1005.40
2022-09-26T01:34:09.726Z,1005.38
2022-09-26T01:35:09.709Z,1005.38
2022-09-26T01:36:09.759Z,1005.38
2022-09-26T01:37:09.663Z,1005.33
2022-09-26T01:38:09.657Z,1005.33
2022-09-26T01:39:09.620Z,1005.33
2022-09-26T01:40:09.609Z,1005.31
2022-09-26T01:41:09.597Z,1005.32
2022-09-26T01:42:09.558Z,1005.32
2022-09-26T01:43:09.534Z,1005.28
2022-09-26T01:44:09.509Z,1005.29
2022-09-26T01:45:09.489Z,1005.29
2022-09-26T01:46:09.522Z,1005.26
2022-09-26T01:47:09.466Z,1005.29
2022-09-26T01:48:09.443Z,1005.30
2022-09-26T01:49:09.457Z,1005.30
2022-09-26T01:50:09.381Z,1005.26
2022-09-26T01:51:09.366Z,1005.27
2022-09-26T01:52:09.355Z,1005.32
2022-09-26T01:53:09.317Z,1005.30
2022-09-26T01:54:09.318Z,1005.27
2022-09-26T01:55:09.276Z,1005.27
2022-09-26T01:56:09.253Z,1005.26
2022-09-26T01:57:09.252Z,1005.26
2022-09-26T01:58:09.221Z,1005.25
2022-09-26T01:59:09.242Z,1005.22
2022-09-26T02:00:09.189Z,1005.26
2022-09-26T02:01:09.247Z,1005.23
2022-09-26T02:02:09.173Z,1005.17
2022-09-26T02:03:09.113Z,1005.16
2022-09-26T02:04:09.088Z,1005.12
2022-09-26T02:05:09.100Z,1005.11
2022-09-26T02:06:09.049Z,1005.05
2022-09-26T02:07:09.027Z,1005.07
2022-09-26T02:08:09.003Z,1005.05
2022-09-26T02:09:09.092Z,1005.01
2022-09-26T02:10:08.969Z,1004.99
2022-09-26T02:11:08.950Z,1004.95
2022-09-26T02:12:08.916Z,1004.91
2022-09-26T02:13:08.929Z,1004.87
2022-09-26T02:15:51.110Z,1004.82
2022-09-26T02:16:51.138Z,1004.81
2022-09-26T02:17:51.051Z,1004.77
2022-09-26T02:18:51.055Z,1004.74
2022-09-26T02:19:51.010Z,1004.72
2022-09-26T02:20:50.993Z,1004.74
2022-09-26T02:21:50.968Z,1004.71
2022-09-26T02:22:50.945Z,1004.71
2022-09-26T02:23:50.926Z,1004.70
2022-09-26T02:24:50.923Z,1004.70
2022-09-26T02:25:50.901Z,1004.66
2022-09-26T02:26:50.868Z,1004.66
2022-09-26T02:27:50.839Z,1004.58
2022-09-26T02:28:50.819Z,1004.59
2022-09-26T02:29:50.795Z,1004.54
2022-09-26T02:30:50.800Z,1004.52
2022-09-26T02:31:50.817Z,1004.56
2022-09-26T02:32:50.731Z,1004.54
2022-09-26T02:33:50.713Z,1004.51
2022-09-26T02:34:50.693Z,1004.47
2022-09-26T02:35:50.684Z,1004.48
2022-09-26T02:36:50.648Z,1004.48
2022-09-26T02:37:50.645Z,1004.43
2022-09-26T02:38:50.617Z,1004.46
2022-09-26T02:39:50.589Z,1004.42
2022-09-26T02:40:50.613Z,1004.37
2022-09-26T02:41:50.571Z,1004.35
2022-09-26T02:42:50.523Z,1004.36
2022-09-26T02:43:50.528Z,1004.28
2022-09-26T02:44:50.478Z,1004.27
2022-09-26T02:45:50.489Z,1004.24
2022-09-26T02:46:50.436Z,1004.24
2022-09-26T02:47:50.419Z,1004.24
2022-09-26T02:48:50.393Z,1004.24
2022-09-26T02:49:50.389Z,1004.20
2022-09-26T02:50:50.349Z,1004.19
2022-09-26T02:51:50.330Z,1004.16
2022-09-26T02:52:50.305Z,1004.21
2022-09-26T02:53:50.306Z,1004.13
2022-09-26T02:54:50.263Z,1004.13
2022-09-26T02:55:50.241Z,1004.03
2022-09-26T02:56:50.243Z,1004.05
2022-09-26T02:57:50.200Z,1004.03
2022-09-26T02:58:50.180Z,1004.00
2022-09-26T02:59:50.171Z,1003.98
2022-09-26T03:00:50.157Z,1003.97
2022-09-26T03:01:50.129Z,1003.95
2022-09-26T03:02:50.111Z,1003.92
2022-09-26T03:03:50.126Z,1003.93
2022-09-26T03:04:50.113Z,1003.90
2022-09-26T03:05:50.048Z,1003.87
2022-09-26T03:06:50.009Z,1003.87
2022-09-26T03:07:50.030Z,1003.86
2022-09-26T03:08:49.982Z,1003.81
2022-09-26T03:09:49.947Z,1003.76
2022-09-26T03:10:49.943Z,1003.78
2022-09-26T03:11:49.923Z,1003.77
2022-09-26T03:12:49.882Z,1003.72
2022-09-26T03:13:49.878Z,1003.71
2022-09-26T03:14:49.839Z,1003.67
2022-09-26T03:15:49.821Z,1003.71
2022-09-26T03:16:49.847Z,1003.66
2022-09-26T03:17:49.777Z,1003.68
2022-09-26T03:18:49.771Z,1003.68
2022-09-26T03:19:49.740Z,1003.68
2022-09-26T03:20:49.712Z,1003.64
2022-09-26T03:21:49.697Z,1003.62
2022-09-26T03:22:49.676Z,1003.55
2022-09-26T03:23:49.672Z,1003.56
2022-09-26T03:24:49.647Z,1003.56
2022-09-26T03:25:49.614Z,1003.49
2022-09-26T03:26:49.597Z,1003.50
2022-09-26T03:27:49.581Z,1003.52
2022-09-26T03:28:49.543Z,1003.43
2022-09-26T03:29:49.521Z,1003.42
2022-09-26T03:30:49.523Z,1003.39
2022-09-26T03:31:49.527Z,1003.34
2022-09-26T03:32:49.469Z,1003.33
2022-09-26T03:33:49.437Z,1003.34
2022-09-26T03:34:49.413Z,1003.30
2022-09-26T03:35:49.394Z,1003.32
2022-09-26T03:36:49.389Z,1003.25
2022-09-26T03:37:49.351Z,1003.23
2022-09-26T03:38:49.335Z,1003.28
2022-09-26T03:39:49.308Z,1003.26
2022-09-26T03:40:49.352Z,1003.27
2022-09-26T03:41:49.272Z,1003.25
2022-09-26T03:42:49.262Z,1003.25
2022-09-26T03:43:49.221Z,1003.25
2022-09-26T03:44:49.205Z,1003.25
2022-09-26T03:45:49.245Z,1003.25
2022-09-26T03:46:49.173Z,1003.24
2022-09-26T03:47:49.135Z,1003.19
2022-09-26T03:48:49.118Z,1003.18
2022-09-26T03:49:49.095Z,1003.19
2022-09-26T03:50:49.075Z,1003.18
2022-09-26T03:51:49.081Z,1003.18
2022-09-26T03:52:49.033Z,1003.17
2022-09-26T03:53:49.008Z,1003.17
2022-09-26T03:54:48.991Z,1003.16
2022-09-26T03:55:48.969Z,1003.17
2022-09-26T03:56:48.951Z,1003.12
2022-09-26T03:57:48.941Z,1003.13
2022-09-26T03:58:48.904Z,1003.09
2022-09-26T03:59:48.881Z,1003.08
2022-09-26T04:00:48.894Z,1003.04
2022-09-26T04:01:48.869Z,1002.98
2022-09-26T04:02:48.816Z,1003.01
2022-09-26T04:03:50.770Z,1002.96
2022-09-26T04:04:48.798Z,1002.91
2022-09-26T04:05:48.755Z,1002.90
2022-09-26T04:06:48.734Z,1002.88
2022-09-26T04:07:48.718Z,1002.89
2022-09-26T04:08:48.695Z,1002.92
2022-09-26T04:09:48.692Z,1002.90
2022-09-26T04:10:48.643Z,1002.86
2022-09-26T04:11:48.628Z,1002.86
2022-09-26T04:12:48.614Z,1002.84
2022-09-26T04:13:53.277Z,1002.82
2022-09-26T04:14:48.559Z,1002.85
2022-09-26T04:15:48.541Z,1002.80
2022-09-26T04:16:48.567Z,1002.82
2022-09-26T04:17:48.505Z,1002.78
2022-09-26T04:18:48.483Z,1002.76
2022-09-26T04:19:48.484Z,1002.71
2022-09-26T04:20:48.435Z,1002.66
2022-09-26T04:21:48.430Z,1002.66
2022-09-26T04:22:48.392Z,1002.65
2022-09-26T04:23:48.372Z,1002.66
2022-09-26T04:24:48.349Z,1002.62
2022-09-26T04:25:48.330Z,1002.59
2022-09-26T04:26:48.321Z,1002.58
2022-09-26T04:27:48.284Z,1002.59
2022-09-26T04:28:48.285Z,1002.53
2022-09-26T04:29:48.265Z,1002.54
2022-09-26T04:30:48.222Z,1002.51
2022-09-26T04:31:48.244Z,1002.51
2022-09-26T04:32:48.181Z,1002.50
2022-09-26T04:33:48.162Z,1002.46
2022-09-26T04:34:48.145Z,1002.49
2022-09-26T04:35:48.114Z,1002.41
2022-09-26T04:36:48.108Z,1002.44
2022-09-26T04:37:48.102Z,1002.42
2022-09-26T04:38:48.050Z,1002.42
2022-09-26T04:39:48.031Z,1002.38
2022-09-26T04:40:48.037Z,1002.38
2022-09-26T04:41:47.986Z,1002.33
2022-09-26T04:42:48.012Z,1002.32
2022-09-26T04:43:48.056Z,1002.31
2022-09-26T04:44:47.930Z,1002.29
2022-09-26T04:45:47.958Z,1002.28
2022-09-26T04:46:47.922Z,1002.27
2022-09-26T04:47:47.882Z,1002.24
2022-09-26T04:48:47.844Z,1002.21
2022-09-26T04:49:47.848Z,1002.19
2022-09-26T04:50:47.837Z,1002.18
2022-09-26T04:51:47.783Z,1002.15
2022-09-26T04:52:47.753Z,1002.15
2022-09-26T04:53:47.857Z,1002.13
2022-09-26T04:54:47.711Z,1002.08
2022-09-26T04:55:47.692Z,1002.07
2022-09-26T04:56:47.707Z,1002.08
2022-09-26T04:57:47.644Z,1002.09
2022-09-26T04:58:47.665Z,1002.06
2022-09-26T04:59:47.689Z,1002.04
2022-09-26T05:00:47.688Z,1002.04
2022-09-26T05:01:47.587Z,1002.02
2022-09-26T05:02:47.545Z,1002.01
2022-09-26T05:03:47.515Z,1001.97
2022-09-26T05:04:47.518Z,1001.95
2022-09-26T05:05:47.492Z,1001.95
2022-09-26T05:06:47.461Z,1001.93
2022-09-26T05:07:47.435Z,1001.92
2022-09-26T05:08:47.410Z,1001.89
2022-09-26T05:11:29.647Z,1001.84
2022-09-26T05:12:29.611Z,1001.85
2022-09-26T05:13:29.590Z,1001.83
2022-09-26T05:14:29.576Z,1001.79
2022-09-26T05:15:29.544Z,1001.81
2022-09-26T05:18:11.631Z,1001.81
2022-09-26T05:19:11.808Z,1001.74
2022-09-26T05:20:11.590Z,1001.75
2022-09-26T05:21:11.596Z,1001.73
2022-09-26T05:22:11.568Z,1001.71
2022-09-26T05:23:11.527Z,1001.66
2022-09-26T05:24:11.514Z,1001.68
2022-09-26T05:26:53.650Z,1001.62
2022-09-26T05:27:53.680Z,1001.63
2022-09-26T05:28:53.590Z,1001.63
2022-09-26T05:29:53.570Z,1001.62
2022-09-26T05:30:53.546Z,1001.61
2022-09-26T05:31:53.605Z,1001.56
2022-09-26T05:32:53.530Z,1001.60
2022-09-26T05:33:53.519Z,1001.58
2022-09-26T05:36:35.657Z,1001.55
2022-09-26T05:37:35.623Z,1001.49
2022-09-26T05:40:17.710Z,1001.45
2022-09-26T05:41:17.621Z,1001.46
2022-09-26T05:42:17.610Z,1001.42
2022-09-26T05:44:59.637Z,1001.39
2022-09-26T05:45:59.641Z,1001.41
2022-09-26T05:46:59.630Z,1001.44
2022-09-26T05:47:59.571Z,1001.36
2022-09-26T05:48:59.574Z,1001.36
2022-09-26T05:49:59.552Z,1001.37
2022-09-26T05:52:41.641Z,1001.33
2022-09-26T05:53:41.631Z,1001.32
2022-09-26T05:54:41.594Z,1001.30
2022-09-26T05:55:41.584Z,1001.29
2022-09-26T05:56:41.572Z,1001.29
2022-09-26T05:57:41.533Z,1001.25
2022-09-26T05:58:41.524Z,1001.26
2022-09-26T05:59:41.496Z,1001.31
2022-09-26T06:00:41.539Z,1001.28
2022-09-26T06:01:41.561Z,1001.25
2022-09-26T06:02:41.470Z,1001.34
2022-09-26T06:03:41.413Z,1001.27
2022-09-26T06:04:41.385Z,1001.24
2022-09-26T06:05:41.367Z,1001.27
2022-09-26T06:08:23.689Z,1001.22
2022-09-26T06:09:23.619Z,1001.21
2022-09-26T06:10:23.601Z,1001.22
2022-09-26T06:11:23.579Z,1001.21
2022-09-26T06:12:23.577Z,1001.16
2022-09-26T06:13:23.569Z,1001.16
2022-09-26T06:14:23.519Z,1001.15
2022-09-26T06:15:23.512Z,1001.14
2022-09-26T06:16:23.510Z,1001.08
2022-09-26T06:17:23.468Z,1001.06
2022-09-26T06:18:23.444Z,1001.01
2022-09-26T06:19:23.625Z,1001.01
2022-09-26T06:20:23.384Z,1000.98
2022-09-26T06:21:23.368Z,1000.98
2022-09-26T06:22:23.365Z,1000.92
2022-09-26T06:23:23.322Z,1000.92
2022-09-26T06:24:23.305Z,1000.95
2022-09-26T06:25:23.279Z,1000.92
2022-09-26T06:26:23.256Z,1000.94
2022-09-26T06:27:23.237Z,1000.91
2022-09-26T06:28:23.255Z,1000.90
2022-09-26T06:29:23.202Z,1000.90
2022-09-26T06:30:23.171Z,1000.88
2022-09-26T06:31:23.262Z,1000.84
2022-09-26T06:32:23.130Z,1000.82
2022-09-26T06:33:23.114Z,1000.82
2022-09-26T06:34:23.101Z,1000.79
2022-09-26T06:35:23.069Z,1000.76
2022-09-26T06:36:23.043Z,1000.74
2022-09-26T06:37:23.023Z,1000.72
2022-09-26T06:38:22.997Z,1000.68
2022-09-26T06:39:22.999Z,1000.69
2022-09-26T06:42:05.251Z,1000.65
2022-09-26T06:43:05.135Z,1000.65
2022-09-26T06:44:05.110Z,1000.59
2022-09-26T06:45:05.084Z,1000.58
2022-09-26T06:46:05.062Z,1000.57
2022-09-26T06:47:05.154Z,1000.58
2022-09-26T06:48:05.354Z,1000.51
2022-09-26T06:49:05.005Z,1000.55
2022-09-26T06:50:04.982Z,1000.50
2022-09-26T06:51:04.964Z,1000.51
2022-09-26T06:52:04.955Z,1000.52
2022-09-26T06:53:08.760Z,1000.52
2022-09-26T06:54:04.898Z,1000.49
2022-09-26T06:55:04.881Z,1000.47
2022-09-26T06:56:04.848Z,1000.49
2022-09-26T06:57:04.854Z,1000.49
2022-09-26T06:58:04.811Z,1000.48
2022-09-26T06:59:04.788Z,1000.51
2022-09-26T07:01:47.336Z,1000.47
2022-09-26T07:02:47.149Z,1000.42
2022-09-26T07:03:47.133Z,1000.45
2022-09-26T07:04:49.612Z,1000.45
2022-09-26T07:05:47.069Z,1000.44
2022-09-26T07:06:47.049Z,1000.44
2022-09-26T07:07:47.024Z,1000.39
2022-09-26T07:10:29.161Z,1000.33
2022-09-26T07:11:50.944Z,1000.33
2022-09-26T07:12:29.114Z,1000.35
2022-09-26T07:13:29.111Z,1000.34
2022-09-26T07:14:29.082Z,1000.30
2022-09-26T07:15:29.053Z,1000.34
2022-09-26T07:16:29.203Z,1000.33
2022-09-26T07:17:29.012Z,1000.32
2022-09-26T07:18:28.985Z,1000.29
2022-09-26T07:19:28.988Z,1000.32
2022-09-26T07:20:28.986Z,1000.30
2022-09-26T07:21:28.928Z,1000.27
2022-09-26T07:22:28.905Z,1000.30
2022-09-26T07:23:28.882Z,1000.26
2022-09-26T07:24:28.892Z,1000.25
2022-09-26T07:25:28.852Z,1000.25
2022-09-26T07:26:28.819Z,1000.22
2022-09-26T07:27:28.796Z,1000.18
2022-09-26T07:28:28.780Z,1000.16
2022-09-26T07:29:28.764Z,1000.13
2022-09-26T07:30:28.749Z,1000.07
2022-09-26T07:31:28.752Z,1000.04
2022-09-26T07:32:28.712Z,1000.06
2022-09-26T07:33:28.673Z,1000.02
2022-09-26T07:34:28.656Z,1000.00
2022-09-26T07:35:28.669Z,1000.01
2022-09-26T07:36:28.612Z,1000.02
2022-09-26T07:37:28.602Z,999.99
2022-09-26T07:38:28.569Z,999.97
2022-09-26T07:39:28.540Z,999.97
2022-09-26T07:40:28.629Z,999.98
2022-09-26T07:41:28.516Z,999.97
2022-09-26T07:42:28.497Z,1000.00
2022-09-26T07:44:00.154Z,999.97
2022-09-26T07:45:29.889Z,999.94
2022-09-26T07:46:28.454Z,999.95
2022-09-26T07:47:28.374Z,1000.02
2022-09-26T07:48:28.362Z,999.99
2022-09-26T07:49:28.360Z,999.97
2022-09-26T07:50:28.306Z,999.91
2022-09-26T07:51:28.294Z,999.95
2022-09-26T07:52:28.279Z,999.89
2022-09-26T07:53:28.262Z,999.90
2022-09-26T07:54:28.228Z,999.87
2022-09-26T07:55:28.226Z,999.91
2022-09-26T07:56:28.182Z,999.88
2022-09-26T07:57:28.185Z,999.83
2022-09-26T07:58:28.145Z,999.86
2022-09-26T07:59:28.135Z,999.86
2022-09-26T08:02:10.355Z,999.83
2022-09-26T08:03:10.184Z,999.83
2022-09-26T08:04:10.147Z,999.81
2022-09-26T08:05:10.110Z,999.77
2022-09-26T08:06:10.083Z,999.79
2022-09-26T08:07:10.065Z,999.73
2022-09-26T08:08:10.053Z,999.80
2022-09-26T08:09:10.100Z,999.76
2022-09-26T08:10:09.994Z,999.76
2022-09-26T08:11:09.993Z,999.77
2022-09-26T08:12:09.965Z,999.74
2022-09-26T08:13:09.930Z,999.73
2022-09-26T08:14:09.953Z,999.74
2022-09-26T08:15:09.907Z,999.70
2022-09-26T08:16:09.923Z,999.67
2022-09-26T08:17:14.113Z,999.71
2022-09-26T08:18:09.819Z,999.63
2022-09-26T08:19:09.839Z,999.63
2022-09-26T08:20:09.810Z,999.64
2022-09-26T08:21:09.772Z,999.64
2022-09-26T08:22:09.740Z,999.59
2022-09-26T08:23:09.736Z,999.60
2022-09-26T08:24:09.809Z,999.60
2022-09-26T08:25:09.676Z,999.58
2022-09-26T08:26:09.675Z,999.57
2022-09-26T08:30:33.670Z,999.56
2022-09-26T08:31:33.690Z,999.52
2022-09-26T08:32:33.652Z,999.52
2022-09-26T08:33:33.623Z,999.51
2022-09-26T08:34:33.592Z,999.49
2022-09-26T08:35:33.567Z,999.49
2022-09-26T08:36:33.548Z,999.49
2022-09-26T08:37:33.558Z,999.46
2022-09-26T08:38:33.507Z,999.47
2022-09-26T08:39:33.726Z,999.46
2022-09-26T08:40:33.491Z,999.43
2022-09-26T08:41:33.436Z,999.47
2022-09-26T08:42:33.439Z,999.47
2022-09-26T08:43:33.417Z,999.46
2022-09-26T08:44:33.378Z,999.45
2022-09-26T08:45:33.351Z,999.47
2022-09-26T08:46:33.393Z,999.47
2022-09-26T08:47:33.319Z,999.41
2022-09-26T08:48:33.308Z,999.40
2022-09-26T08:49:33.280Z,999.38
2022-09-26T08:50:33.248Z,999.41
2022-09-26T08:51:33.239Z,999.42
2022-09-26T08:52:33.210Z,999.40
2022-09-26T08:53:33.186Z,999.41
2022-09-26T08:54:33.162Z,999.40
2022-09-26T08:55:33.169Z,999.39
2022-09-26T08:56:33.117Z,999.39
2022-09-26T08:57:33.093Z,999.39
2022-09-26T08:58:33.073Z,999.37
2022-09-26T08:59:33.052Z,999.37
2022-09-26T09:00:33.046Z,999.35
2022-09-26T09:01:33.058Z,999.34
2022-09-26T09:04:15.322Z,999.37
2022-09-26T09:05:15.161Z,999.41
2022-09-26T09:06:15.164Z,999.33
2022-09-26T09:07:15.117Z,999.34
2022-09-26T09:08:15.099Z,999.35
2022-09-26T09:09:15.080Z,999.35
2022-09-26T09:11:57.202Z,999.29
2022-09-26T09:12:57.157Z,999.31
2022-09-26T09:15:39.250Z,999.26
2022-09-26T09:16:39.163Z,999.27
2022-09-26T09:17:39.136Z,999.22
2022-09-26T09:18:39.139Z,999.20
2022-09-26T09:19:39.096Z,999.15
2022-09-26T09:20:39.096Z,999.14
2022-09-26T09:21:41.772Z,999.16
2022-09-26T09:22:39.034Z,999.22
2022-09-26T09:23:39.008Z,999.15
2022-09-26T09:24:38.993Z,999.21
2022-09-26T09:25:38.974Z,999.17
2022-09-26T09:27:54.794Z,999.18
2022-09-26T09:28:38.956Z,999.17
2022-09-26T09:29:38.882Z,999.16
2022-09-26T09:30:38.873Z,999.13
2022-09-26T09:31:38.881Z,999.10
2022-09-26T09:32:38.842Z,999.10
2022-09-26T09:33:38.816Z,999.06
2022-09-26T09:34:38.800Z,999.06
2022-09-26T09:35:38.750Z,999.04
2022-09-26T09:36:38.736Z,998.97
2022-09-26T09:37:38.708Z,999.00
2022-09-26T09:38:38.689Z,998.96
2022-09-26T09:39:38.661Z,998.90
2022-09-26T09:40:38.745Z,998.89
2022-09-26T09:41:38.637Z,998.90
2022-09-26T09:42:38.604Z,998.84
2022-09-26T09:43:38.632Z,998.83
2022-09-26T09:44:40.995Z,998.81
2022-09-26T09:47:20.687Z,998.81
2022-09-26T09:48:20.671Z,998.82
2022-09-26T09:49:20.678Z,998.79
2022-09-26T09:50:20.621Z,998.78
2022-09-26T09:51:20.602Z,998.75
2022-09-26T09:52:20.906Z,998.70
2022-09-26T09:53:20.574Z,998.71
2022-09-26T09:54:20.570Z,998.67
2022-09-26T09:55:20.516Z,998.74
2022-09-26T09:56:20.498Z,998.66
2022-09-26T09:57:20.474Z,998.67
2022-09-26T09:58:20.475Z,998.61
2022-09-26T09:59:20.438Z,998.58
2022-09-26T10:00:20.464Z,998.56
2022-09-26T10:01:20.397Z,998.59
2022-09-26T10:02:20.564Z,998.53
2022-09-26T10:03:20.435Z,998.58
2022-09-26T10:04:20.337Z,998.46
2022-09-26T10:05:20.306Z,998.50
2022-09-26T10:06:44.361Z,998.44
2022-09-26T10:07:20.267Z,998.43
2022-09-26T10:10:02.197Z,998.31
2022-09-26T10:11:02.189Z,998.33
2022-09-26T10:12:02.162Z,998.28
2022-09-26T10:13:02.153Z,998.22
2022-09-26T10:14:02.123Z,998.23
2022-09-26T10:15:02.101Z,998.22
2022-09-26T10:16:02.123Z,998.23
2022-09-26T10:17:02.118Z,998.20
2022-09-26T10:18:23.389Z,998.17
2022-09-26T10:19:03.662Z,998.17
2022-09-26T10:20:01.986Z,998.12
2022-09-26T10:21:01.965Z,998.15
2022-09-26T10:22:01.949Z,998.11
2022-09-26T10:23:01.943Z,998.09
2022-09-26T10:24:01.922Z,998.07
2022-09-26T10:25:01.880Z,998.08
2022-09-26T10:26:01.862Z,998.06
2022-09-26T10:27:01.839Z,998.07
2022-09-26T10:28:01.827Z,998.01
2022-09-26T10:29:01.815Z,998.05
2022-09-26T10:30:01.779Z,997.96
2022-09-26T10:31:01.835Z,998.02
2022-09-26T10:32:01.743Z,998.00
2022-09-26T10:33:01.743Z,998.03
2022-09-26T10:34:01.688Z,997.97
2022-09-26T10:35:01.676Z,998.00
2022-09-26T10:37:43.711Z,997.93
2022-09-26T10:38:43.705Z,997.94
2022-09-26T10:39:43.657Z,997.93
2022-09-26T10:40:43.717Z,997.90
2022-09-26T10:41:43.634Z,997.90
2022-09-26T10:42:43.597Z,997.83
2022-09-26T10:43:43.589Z,997.81
2022-09-26T10:44:43.572Z,997.78
2022-09-26T10:45:43.533Z,997.78
2022-09-26T10:46:43.608Z,997.84
2022-09-26T10:47:43.500Z,997.78
2022-09-26T10:48:43.469Z,997.85
2022-09-26T10:49:43.459Z,997.81
2022-09-26T10:50:43.460Z,997.82
2022-09-26T10:51:43.411Z,997.77
2022-09-26T10:52:43.387Z,997.74
2022-09-26T10:53:43.368Z,997.75
2022-09-26T10:54:43.384Z,997.68
2022-09-26T10:55:43.333Z,997.66
2022-09-26T10:56:43.335Z,997.72
2022-09-26T10:57:43.662Z,997.62
2022-09-26T10:58:43.269Z,997.64
2022-09-26T10:59:43.247Z,997.59
2022-09-26T11:00:43.240Z,997.60
2022-09-26T11:01:43.429Z,997.52
2022-09-26T11:02:43.193Z,997.55
2022-09-26T11:03:43.234Z,997.51
2022-09-26T11:04:43.141Z,997.50
2022-09-26T11:05:43.126Z,997.51
2022-09-26T11:06:43.117Z,997.56
2022-09-26T11:07:43.093Z,997.47
2022-09-26T11:08:43.069Z,997.48
2022-09-26T11:09:43.039Z,997.48
2022-09-26T11:10:43.025Z,997.47
2022-09-26T11:11:43.016Z,997.48
2022-09-26T11:12:42.990Z,997.39
2022-09-26T11:13:42.958Z,997.42
2022-09-26T11:14:42.938Z,997.37
2022-09-26T11:15:42.963Z,997.42
2022-09-26T11:16:42.900Z,997.36
2022-09-26T11:17:42.904Z,997.39
2022-09-26T11:18:42.856Z,997.41
2022-09-26T11:19:42.833Z,997.32
2022-09-26T11:20:42.838Z,997.36
2022-09-26T11:21:42.791Z,997.33
2022-09-26T11:22:42.790Z,997.32
2022-09-26T11:23:42.757Z,997.29
2022-09-26T11:24:42.736Z,997.27
2022-09-26T11:25:42.726Z,997.22
2022-09-26T11:26:42.691Z,997.28
2022-09-26T11:27:42.670Z,997.26
2022-09-26T11:28:42.665Z,997.22
2022-09-26T11:29:42.639Z,997.23
2022-09-26T11:30:42.648Z,997.18
2022-09-26T11:31:42.647Z,997.14
2022-09-26T11:32:42.568Z,997.08
2022-09-26T11:33:42.572Z,997.06
2022-09-26T11:34:42.527Z,997.05
2022-09-26T11:35:42.532Z,996.99
2022-09-26T11:36:42.507Z,996.98
2022-09-26T11:37:42.460Z,996.96
2022-09-26T11:38:42.460Z,996.93
2022-09-26T11:39:42.443Z,996.95
2022-09-26T11:40:42.468Z,996.92
2022-09-26T11:41:42.383Z,996.93
2022-09-26T11:42:42.363Z,996.91
2022-09-26T11:43:42.342Z,996.87
2022-09-26T11:44:42.321Z,996.84
2022-09-26T11:45:46.546Z,996.84
2022-09-26T11:46:42.321Z,996.82
2022-09-26T11:47:42.259Z,996.79
2022-09-26T11:48:42.286Z,996.72
2022-09-26T11:49:42.221Z,996.71
2022-09-26T11:50:42.237Z,996.69
2022-09-26T11:51:42.193Z,996.70
2022-09-26T11:52:45.571Z,996.72
2022-09-26T11:53:42.157Z,996.74
2022-09-26T11:54:42.136Z,996.70
2022-09-26T11:55:42.120Z,996.74
2022-09-26T11:56:42.082Z,996.66
2022-09-26T11:57:42.079Z,996.71
2022-09-26T11:58:42.043Z,996.64
2022-09-26T11:59:42.025Z,996.68
2022-09-26T12:00:41.998Z,996.64
2022-09-26T12:01:41.978Z,996.65
2022-09-26T12:02:42.158Z,996.65
2022-09-26T12:03:42.050Z,996.60
2022-09-26T12:04:41.937Z,996.60
2022-09-26T12:05:41.898Z,996.61
2022-09-26T12:06:41.883Z,996.56
2022-09-26T12:07:41.858Z,996.62
2022-09-26T12:08:41.857Z,996.60
2022-09-26T12:09:41.850Z,996.61
2022-09-26T12:10:41.802Z,996.61
2022-09-26T12:11:41.836Z,996.59
2022-09-26T12:12:41.769Z,996.69
2022-09-26T12:13:41.753Z,996.57
2022-09-26T12:14:42.335Z,996.56
2022-09-26T12:46:09.721Z,996.30
2022-09-26T12:47:09.483Z,996.29
2022-09-26T12:48:09.466Z,996.27
2022-09-26T12:49:09.538Z,996.26
2022-09-26T12:50:09.539Z,996.29
2022-09-26T12:51:09.394Z,996.31
2022-09-26T12:52:09.378Z,996.26
2022-09-26T12:53:09.391Z,996.24
2022-09-26T12:54:09.331Z,996.23
2022-09-26T12:55:09.319Z,996.25
2022-09-26T12:56:09.298Z,996.21
2022-09-26T12:57:09.277Z,996.20
2022-09-26T12:58:09.249Z,996.21
2022-09-26T12:59:09.285Z,996.18
2022-09-26T13:00:09.267Z,996.24
2022-09-26T13:01:09.387Z,996.23
2022-09-26T13:02:09.195Z,996.22
2022-09-26T13:03:09.173Z,996.18
2022-09-26T13:04:09.145Z,996.19
2022-09-26T13:05:09.120Z,996.19
2022-09-26T13:06:09.167Z,996.15
2022-09-26T13:07:21.277Z,996.14
2022-09-26T13:08:09.042Z,996.10
2022-09-26T13:09:09.061Z,996.08
2022-09-26T13:10:09.058Z,996.08
2022-09-26T13:11:08.983Z,996.06
2022-09-26T13:12:08.964Z,996.09
2022-09-26T13:13:08.937Z,996.06
2022-09-26T13:14:08.934Z,995.98
2022-09-26T20:24:28.975Z,992.40
2022-09-26T20:25:27.246Z,992.42
2022-09-26T20:26:26.012Z,992.40
2022-09-26T20:29:07.900Z,992.38
2022-09-26T20:30:09.908Z,992.39
2022-09-26T20:31:07.907Z,992.38
2022-09-26T20:32:11.032Z,992.37
2022-09-26T20:33:07.934Z,992.34